createdAt,value
2023-04-16T00:00:42.908Z,9.10
2023-04-16T00:05:35.941Z,5.47
2023-04-16T00:08:02.544Z,6.28
2023-04-16T00:10:29.086Z,6.07
2023-04-16T00:12:55.488Z,4.80
2023-04-16T00:15:22.066Z,5.25
2023-04-16T00:17:48.516Z,6.10
2023-04-16T00:20:15.404Z,6.07
2023-04-16T00:22:41.804Z,4.15
2023-04-16T00:25:08.589Z,7.65
2023-04-16T00:27:35.042Z,8.55
2023-04-16T00:30:01.615Z,6.82
2023-04-16T00:32:28.105Z,4.88
2023-04-16T00:34:54.735Z,6.15
2023-04-16T00:37:21.180Z,5.80
2023-04-16T00:39:47.662Z,6.25
2023-04-16T00:42:14.975Z,9.52
2023-04-16T00:44:41.399Z,3.83
2023-04-16T00:47:08.745Z,6.53
2023-04-16T00:49:36.211Z,7.38
2023-04-16T00:52:03.379Z,9.13
2023-04-16T00:54:31.561Z,4.88
2023-04-16T00:56:59.645Z,10.25
2023-04-16T00:59:26.964Z,6.68
2023-04-16T01:01:53.591Z,9.07
2023-04-16T01:04:20.692Z,6.00
2023-04-16T01:06:47.165Z,7.45
2023-04-16T01:09:14.187Z,10.15
2023-04-16T01:11:40.751Z,6.53
2023-04-16T01:14:07.341Z,10.13
2023-04-16T01:16:33.850Z,9.35
2023-04-16T01:19:00.392Z,10.40
2023-04-16T01:21:27.444Z,9.70
2023-04-16T01:23:53.961Z,10.63
2023-04-16T01:26:20.407Z,12.63
2023-04-16T01:28:46.903Z,7.30
2023-04-16T01:31:13.414Z,9.55
2023-04-16T01:34:02.527Z,8.40
2023-04-16T01:36:28.960Z,8.98
2023-04-16T01:38:55.588Z,12.57
2023-04-16T01:41:23.479Z,10.05
2023-04-16T01:43:50.006Z,10.60
2023-04-16T01:46:27.176Z,10.98
2023-04-16T01:48:54.799Z,8.10
2023-04-16T01:51:21.790Z,11.35
2023-04-16T01:53:52.032Z,11.73
2023-04-16T01:56:18.514Z,8.75
2023-04-16T01:58:46.075Z,12.85
2023-04-16T02:01:13.973Z,11.32
2023-04-16T02:03:40.720Z,10.50
2023-04-16T02:06:07.443Z,8.30
2023-04-16T02:08:35.544Z,10.25
2023-04-16T02:11:02.102Z,15.25
2023-04-16T02:13:28.968Z,10.10
2023-04-16T02:15:55.439Z,13.48
2023-04-16T02:18:57.300Z,10.25
2023-04-16T02:21:24.843Z,11.90
2023-04-16T02:23:51.819Z,11.73
2023-04-16T02:26:22.751Z,14.80
2023-04-16T02:28:50.996Z,11.82
2023-04-16T02:31:19.745Z,9.77
2023-04-16T02:33:47.785Z,13.60
2023-04-16T02:36:14.718Z,9.48
2023-04-16T02:38:41.177Z,15.73
2023-04-16T02:41:08.179Z,11.18
2023-04-16T02:43:34.792Z,13.45
2023-04-16T02:46:01.863Z,11.38
2023-04-16T02:48:28.453Z,14.40
2023-04-16T02:50:54.933Z,9.50
2023-04-16T02:53:21.655Z,11.50
2023-04-16T02:55:54.978Z,11.50
2023-04-16T02:58:23.928Z,12.43
2023-04-16T03:00:51.265Z,15.43
2023-04-16T03:03:17.943Z,10.93
2023-04-16T03:05:45.458Z,11.00
2023-04-16T03:08:11.923Z,12.15
2023-04-16T03:10:38.462Z,15.77
2023-04-16T03:13:05.081Z,10.93
2023-04-16T03:15:31.595Z,12.23
2023-04-16T03:17:59.108Z,14.68
2023-04-16T03:20:25.877Z,13.15
2023-04-16T03:22:53.047Z,15.00
2023-04-16T03:25:19.675Z,16.50
2023-04-16T03:27:46.189Z,13.30
2023-04-16T03:30:14.633Z,12.43
2023-04-16T03:32:41.605Z,14.20
2023-04-16T03:35:09.559Z,13.05
2023-04-16T03:37:36.845Z,14.90
2023-04-16T03:40:05.791Z,12.70
2023-04-16T03:42:32.540Z,16.73
2023-04-16T03:44:59.358Z,17.55
2023-04-16T03:47:26.138Z,14.77
2023-04-16T03:49:56.055Z,16.27
2023-04-16T03:52:22.585Z,18.35
2023-04-16T03:54:49.049Z,13.30
2023-04-16T03:57:24.140Z,12.88
2023-04-16T03:59:51.378Z,14.73
2023-04-16T04:02:18.435Z,14.05
2023-04-16T04:04:45.348Z,13.35
2023-04-16T04:07:11.889Z,15.52
2023-04-16T04:09:38.752Z,18.42
2023-04-16T04:12:05.310Z,16.13
2023-04-16T04:14:33.066Z,16.45
2023-04-16T04:16:59.597Z,14.80
2023-04-16T04:19:26.031Z,14.25
2023-04-16T04:21:52.460Z,15.90
2023-04-16T04:24:18.906Z,15.32
2023-04-16T04:26:45.484Z,13.55
2023-04-16T04:29:12.365Z,19.55
2023-04-16T04:31:38.997Z,14.50
2023-04-16T04:34:05.468Z,11.82
2023-04-16T04:36:32.234Z,15.82
2023-04-16T04:39:00.110Z,12.32
2023-04-16T04:41:27.255Z,11.07
2023-04-16T04:43:53.892Z,12.85
2023-04-16T04:46:20.847Z,18.35
2023-04-16T04:48:47.382Z,16.30
2023-04-16T04:51:16.193Z,15.30
2023-04-16T04:53:45.236Z,13.68
2023-04-16T04:56:13.054Z,13.85
2023-04-16T04:58:41.397Z,17.38
2023-04-16T05:01:07.997Z,16.45
2023-04-16T05:03:34.617Z,16.73
2023-04-16T05:06:01.212Z,14.88
2023-04-16T05:08:29.901Z,13.23
2023-04-16T05:10:56.302Z,12.13
2023-04-16T05:13:22.928Z,14.77
2023-04-16T05:15:49.474Z,17.42
2023-04-16T05:18:16.297Z,11.68
2023-04-16T05:20:42.696Z,21.15
2023-04-16T05:23:09.161Z,15.07
2023-04-16T05:25:35.725Z,20.65
2023-04-16T05:28:02.139Z,16.35
2023-04-16T05:30:28.551Z,21.58
2023-04-16T05:32:54.973Z,18.40
2023-04-16T05:35:22.264Z,23.77
2023-04-16T05:37:48.708Z,18.05
2023-04-16T05:40:15.397Z,18.33
2023-04-16T05:42:41.938Z,15.85
2023-04-16T05:45:08.953Z,19.48
2023-04-16T05:47:35.473Z,14.93
2023-04-16T05:50:01.989Z,15.68
2023-04-16T05:52:28.502Z,16.10
2023-04-16T05:54:55.089Z,15.70
2023-04-16T05:57:21.578Z,13.90
2023-04-16T05:59:48.145Z,18.10
2023-04-16T06:02:14.994Z,16.70
2023-04-16T06:04:41.483Z,19.00
2023-04-16T06:07:07.985Z,12.57
2023-04-16T06:09:34.397Z,20.17
2023-04-16T06:12:01.312Z,17.73
2023-04-16T06:14:27.796Z,13.65
2023-04-16T06:16:54.239Z,16.67
2023-04-16T06:19:20.898Z,16.70
2023-04-16T06:21:47.409Z,17.08
2023-04-16T06:24:14.037Z,16.20
2023-04-16T06:26:40.485Z,16.83
2023-04-16T06:29:06.893Z,16.83
2023-04-16T06:31:33.384Z,19.85
2023-04-16T06:33:59.829Z,14.75
2023-04-16T06:36:27.563Z,18.00
2023-04-16T06:38:53.955Z,16.13
2023-04-16T06:41:22.700Z,19.40
2023-04-16T06:43:49.468Z,18.75
2023-04-16T06:46:15.926Z,17.52
2023-04-16T06:48:42.577Z,18.80
2023-04-16T06:51:09.149Z,15.30
2023-04-16T06:53:37.477Z,20.05
2023-04-16T06:56:04.276Z,16.55
2023-04-16T06:58:30.780Z,20.58
2023-04-16T07:00:57.363Z,15.30
2023-04-16T07:03:23.994Z,15.32
2023-04-16T07:05:50.597Z,17.20
2023-04-16T07:08:17.058Z,15.38
2023-04-16T07:10:43.685Z,18.70
2023-04-16T07:13:10.382Z,17.58
2023-04-16T07:15:36.869Z,17.33
2023-04-16T07:18:03.374Z,17.00
2023-04-16T07:20:29.980Z,20.25
2023-04-16T07:22:56.624Z,19.55
2023-04-16T07:25:23.112Z,21.60
2023-04-16T07:27:49.668Z,15.02
2023-04-16T07:30:16.240Z,22.20
2023-04-16T07:32:42.952Z,15.40
2023-04-16T07:35:09.619Z,20.50
2023-04-16T07:37:36.081Z,20.40
2023-04-16T07:40:02.567Z,17.15
2023-04-16T07:42:29.123Z,16.67
2023-04-16T07:44:55.592Z,14.70
2023-04-16T07:47:23.249Z,16.95
2023-04-16T07:49:50.581Z,16.48
2023-04-16T07:52:16.990Z,17.23
2023-04-16T07:54:43.536Z,16.10
2023-04-16T07:57:11.473Z,17.45
2023-04-16T07:59:38.058Z,16.27
2023-04-16T08:02:04.910Z,14.70
2023-04-16T08:04:31.729Z,14.82
2023-04-16T08:06:58.333Z,12.10
2023-04-16T08:09:28.307Z,13.90
2023-04-16T08:11:54.855Z,13.02
2023-04-16T08:14:21.332Z,11.88
2023-04-16T08:16:47.802Z,14.45
2023-04-16T08:19:14.265Z,13.73
2023-04-16T08:21:41.075Z,10.68
2023-04-16T08:24:07.969Z,9.93
2023-04-16T08:26:34.643Z,12.20
2023-04-16T08:29:01.180Z,12.13
2023-04-16T08:31:27.757Z,8.90
2023-04-16T08:33:54.206Z,10.32
2023-04-16T08:36:20.836Z,8.02
2023-04-16T08:38:47.364Z,8.07
2023-04-16T08:41:14.949Z,7.63
2023-04-16T08:43:45.590Z,8.45
2023-04-16T08:46:13.079Z,9.40
2023-04-16T08:48:42.026Z,7.75
2023-04-16T08:53:48.387Z,7.72
2023-04-16T08:56:18.028Z,7.18
2023-04-16T08:58:47.491Z,7.38
2023-04-16T09:01:14.820Z,8.02
2023-04-16T09:03:41.726Z,10.13
2023-04-16T09:06:09.918Z,10.20
2023-04-16T09:08:38.046Z,6.57
2023-04-16T09:11:04.617Z,9.20
2023-04-16T09:13:34.167Z,8.75
2023-04-16T09:16:00.999Z,7.35
2023-04-16T09:18:28.417Z,8.30
2023-04-16T09:20:56.252Z,8.48
2023-04-16T09:23:23.373Z,7.60
2023-04-16T09:25:49.773Z,7.60
2023-04-16T09:28:41.775Z,8.65
2023-04-16T09:31:13.361Z,8.82
2023-04-16T09:33:40.493Z,7.47
2023-04-16T09:36:07.628Z,9.18
2023-04-16T09:38:48.034Z,8.05
2023-04-16T09:41:18.071Z,6.80
2023-04-16T09:44:02.007Z,9.07
2023-04-16T09:46:34.950Z,7.03
2023-04-16T09:49:15.518Z,6.78
2023-04-16T09:51:43.551Z,9.65
2023-04-16T09:54:10.113Z,7.68
2023-04-16T09:56:44.959Z,8.13
2023-04-16T10:01:46.962Z,9.18
2023-04-16T10:06:39.854Z,7.55
2023-04-16T10:09:09.687Z,10.43
2023-04-16T10:11:37.755Z,11.68
2023-04-16T10:14:04.207Z,8.00
2023-04-16T10:16:31.053Z,9.82
2023-04-16T10:18:58.749Z,11.75
2023-04-16T10:21:26.370Z,15.82
2023-04-16T10:23:52.937Z,14.60
2023-04-16T10:26:21.318Z,14.30
2023-04-16T10:28:47.989Z,17.40
2023-04-16T10:31:14.847Z,14.55
2023-04-16T10:33:42.633Z,13.73
2023-04-16T10:36:09.601Z,16.30
2023-04-16T10:38:39.725Z,11.43
2023-04-16T10:41:07.066Z,12.77
2023-04-16T10:43:42.437Z,12.70
2023-04-16T10:46:33.367Z,16.02
2023-04-16T10:49:16.232Z,12.85
2023-04-16T10:51:42.794Z,12.85
2023-04-16T10:54:09.279Z,15.75
2023-04-16T10:56:37.152Z,13.70
2023-04-16T10:59:11.418Z,13.40
2023-04-16T11:01:46.188Z,16.17
2023-04-16T11:04:22.074Z,13.38
2023-04-16T11:07:03.059Z,16.08
2023-04-16T11:10:02.092Z,15.00
2023-04-16T11:12:35.529Z,13.75
2023-04-16T11:15:05.976Z,13.45
2023-04-16T11:17:43.616Z,12.55
2023-04-16T11:20:20.246Z,14.68
2023-04-16T11:22:57.713Z,12.93
2023-04-16T11:25:26.289Z,12.88
2023-04-16T11:27:53.207Z,10.88
2023-04-16T11:30:31.963Z,15.85
2023-04-16T11:32:58.600Z,12.55
2023-04-16T11:35:27.438Z,15.10
2023-04-16T11:40:25.244Z,11.25
2023-04-16T11:42:51.870Z,14.57
2023-04-16T11:45:19.445Z,15.95
2023-04-16T11:47:55.148Z,14.57
2023-04-16T11:50:24.206Z,18.50
2023-04-16T11:55:18.906Z,11.52
2023-04-16T11:57:46.005Z,12.30
2023-04-16T12:00:14.238Z,16.88
2023-04-16T12:02:51.642Z,13.07
2023-04-16T12:05:28.792Z,17.63
2023-04-16T12:07:55.845Z,16.83
2023-04-16T12:10:22.764Z,16.75
2023-04-16T12:12:49.572Z,16.02
2023-04-16T12:15:16.144Z,13.52
2023-04-16T12:17:42.602Z,17.10
2023-04-16T12:20:10.054Z,15.35
2023-04-16T12:22:38.400Z,13.02
2023-04-16T12:25:13.586Z,13.73
2023-04-16T12:27:55.584Z,14.70
2023-04-16T12:30:23.791Z,10.95
2023-04-16T12:32:52.489Z,11.18
2023-04-16T12:37:59.047Z,10.85
2023-04-16T12:40:25.979Z,10.07
2023-04-16T12:42:52.452Z,10.43
2023-04-16T12:45:19.123Z,13.45
2023-04-16T12:47:46.513Z,11.85
2023-04-16T12:50:12.998Z,14.27
2023-04-16T12:52:39.530Z,10.52
2023-04-16T12:55:06.653Z,12.20
2023-04-16T12:57:33.130Z,10.02
2023-04-16T12:59:59.601Z,15.68
2023-04-16T13:02:26.189Z,13.40
2023-04-16T13:04:53.857Z,11.68
2023-04-16T13:07:21.230Z,13.07
2023-04-16T13:09:47.782Z,15.23
2023-04-16T13:12:14.264Z,15.55
2023-04-16T13:14:42.399Z,14.93
2023-04-16T13:17:09.916Z,16.55
2023-04-16T13:19:36.512Z,19.10
2023-04-16T13:22:03.183Z,16.10
2023-04-16T13:24:30.526Z,15.63
2023-04-16T13:26:56.931Z,17.73
2023-04-16T13:29:23.336Z,19.80
2023-04-16T13:31:50.003Z,17.80
2023-04-16T13:34:16.573Z,16.23
2023-04-16T13:36:43.283Z,17.20
2023-04-16T13:39:12.737Z,13.52
2023-04-16T13:41:39.567Z,18.40
2023-04-16T13:44:06.348Z,14.73
2023-04-16T13:46:33.427Z,12.35
2023-04-16T13:49:00.058Z,16.55
2023-04-16T13:51:27.669Z,13.85
2023-04-16T13:53:54.818Z,15.35
2023-04-16T13:56:21.394Z,15.05
2023-04-16T13:58:48.393Z,13.27
2023-04-16T14:01:15.038Z,11.43
2023-04-16T14:03:42.049Z,9.57
2023-04-16T14:06:08.622Z,12.65
2023-04-16T14:08:35.074Z,12.32
2023-04-16T14:11:02.127Z,12.60
2023-04-16T14:13:28.674Z,10.10
2023-04-16T14:15:55.776Z,11.13
2023-04-16T14:18:22.289Z,12.10
2023-04-16T14:20:48.722Z,12.27
2023-04-16T14:23:15.278Z,12.15
2023-04-16T14:25:41.764Z,12.43
2023-04-16T14:28:09.226Z,13.27
2023-04-16T14:30:35.678Z,11.45
2023-04-16T14:33:04.401Z,14.23
2023-04-16T14:40:24.820Z,11.82
2023-04-16T14:42:51.366Z,10.20
2023-04-16T14:45:17.769Z,15.02
2023-04-16T14:47:47.683Z,14.95
2023-04-16T14:50:15.666Z,15.23
2023-04-16T14:52:42.215Z,14.02
2023-04-16T14:55:08.743Z,12.68
2023-04-16T14:57:35.330Z,14.70
2023-04-16T15:00:02.130Z,15.27
2023-04-16T15:02:29.226Z,12.32
2023-04-16T15:04:55.948Z,12.20
2023-04-16T15:07:22.526Z,15.60
2023-04-16T15:09:49.109Z,15.98
2023-04-16T15:12:17.941Z,14.68
2023-04-16T15:14:45.580Z,15.15
2023-04-16T15:17:12.162Z,16.05
2023-04-16T15:19:38.657Z,13.13
2023-04-16T15:22:05.083Z,13.10
2023-04-16T15:24:31.613Z,11.52
2023-04-16T15:26:58.228Z,14.32
2023-04-16T15:29:24.810Z,12.48
2023-04-16T15:31:51.216Z,11.82
2023-04-16T15:34:17.643Z,12.23
2023-04-16T15:36:44.067Z,12.57
2023-04-16T15:39:10.902Z,11.65
2023-04-16T15:41:50.224Z,12.57
2023-04-16T15:44:24.185Z,12.35
2023-04-16T15:46:50.851Z,11.82
2023-04-16T15:49:17.472Z,13.32
2023-04-16T15:51:43.965Z,14.25
2023-04-16T15:54:10.403Z,15.55
2023-04-16T15:56:37.081Z,13.50
2023-04-16T15:59:03.821Z,13.80
2023-04-16T16:01:31.104Z,12.05
2023-04-16T16:04:07.428Z,12.40
2023-04-16T16:11:27.617Z,12.70
2023-04-16T16:13:54.164Z,14.55
2023-04-16T16:16:21.666Z,14.38
2023-04-16T16:18:48.183Z,15.90
2023-04-16T16:21:14.642Z,15.30
2023-04-16T16:23:41.255Z,16.33
2023-04-16T16:26:07.745Z,14.95
2023-04-16T16:28:37.519Z,18.30
2023-04-16T16:31:05.927Z,13.88
2023-04-16T16:33:33.094Z,15.15
2023-04-16T16:35:59.690Z,12.38
2023-04-16T16:38:26.187Z,21.77
2023-04-16T16:40:52.721Z,17.30
2023-04-16T16:43:19.449Z,16.90
2023-04-16T16:45:46.392Z,17.25
2023-04-16T16:48:12.881Z,18.15
2023-04-16T16:50:41.774Z,16.08
2023-04-16T16:58:02.174Z,15.93
2023-04-16T17:00:28.753Z,14.75
2023-04-16T17:02:55.418Z,19.85
2023-04-16T17:05:22.160Z,20.17
2023-04-16T17:07:48.663Z,20.17
2023-04-16T17:10:21.683Z,17.48
2023-04-16T17:12:49.259Z,19.83
2023-04-16T17:15:17.189Z,15.43
2023-04-16T17:17:44.522Z,16.55
2023-04-16T17:20:12.160Z,21.58
2023-04-16T17:22:39.717Z,13.13
2023-04-16T17:25:07.635Z,16.65
2023-04-16T17:27:34.349Z,18.27
2023-04-16T17:30:01.773Z,19.10
2023-04-16T17:32:29.556Z,17.60
2023-04-16T17:34:56.532Z,17.65
2023-04-16T17:37:23.650Z,15.15
2023-04-16T17:39:51.018Z,14.63
2023-04-16T17:42:17.616Z,17.48
2023-04-16T17:44:44.207Z,18.02
2023-04-16T17:47:10.810Z,19.77
2023-04-16T17:49:37.302Z,18.63
2023-04-16T17:52:03.973Z,15.52
2023-04-16T17:54:30.470Z,16.48
2023-04-16T17:56:57.620Z,16.42
2023-04-16T17:59:24.099Z,16.58
2023-04-16T18:01:50.789Z,15.43
2023-04-16T18:04:17.839Z,19.02
2023-04-16T18:06:44.761Z,16.80
2023-04-16T18:09:12.083Z,17.63
2023-04-16T18:11:38.586Z,16.35
2023-04-16T18:14:05.176Z,18.45
2023-04-16T18:16:32.182Z,16.08
2023-04-16T18:18:59.049Z,17.75
2023-04-16T18:21:25.900Z,16.90
2023-04-16T18:23:52.318Z,17.40
2023-04-16T18:26:21.122Z,19.90
2023-04-16T18:28:49.266Z,19.25
2023-04-16T18:31:15.955Z,17.67
2023-04-16T18:33:53.380Z,17.25
2023-04-16T18:36:21.871Z,18.58
2023-04-16T18:39:00.162Z,21.85
2023-04-16T18:41:28.672Z,21.45
2023-04-16T18:43:55.324Z,17.92
2023-04-16T18:46:21.903Z,22.10
2023-04-16T18:48:48.427Z,22.77
2023-04-16T18:51:16.253Z,20.80
2023-04-16T18:53:44.264Z,21.38
2023-04-16T18:56:11.601Z,19.90
2023-04-16T18:58:38.165Z,24.23
2023-04-16T19:01:06.088Z,21.52
2023-04-16T19:03:33.234Z,20.83
2023-04-16T19:06:00.087Z,26.88
2023-04-16T19:08:27.105Z,24.10
2023-04-16T19:10:53.528Z,20.45
2023-04-16T19:13:20.049Z,20.85
2023-04-16T19:15:46.637Z,20.38
2023-04-16T19:18:13.164Z,18.88
2023-04-16T19:20:39.737Z,23.05
2023-04-16T19:23:08.805Z,21.60
2023-04-16T19:25:36.516Z,22.40
2023-04-16T19:28:03.730Z,19.30
2023-04-16T19:30:30.808Z,23.50
2023-04-16T19:32:57.850Z,19.63
2023-04-16T19:35:24.477Z,20.65
2023-04-16T19:37:51.393Z,20.40
2023-04-16T19:40:18.029Z,21.35
2023-04-16T19:42:45.414Z,20.35
2023-04-16T19:45:11.975Z,18.80
2023-04-16T19:47:38.719Z,19.98
2023-04-16T19:50:05.854Z,22.33
2023-04-16T19:52:37.295Z,20.20
2023-04-16T19:55:04.754Z,19.13
2023-04-16T19:57:31.170Z,20.40
2023-04-16T19:59:57.618Z,22.85
2023-04-16T20:02:24.240Z,25.73
2023-04-16T20:04:52.842Z,21.48
2023-04-16T20:07:20.063Z,24.08
2023-04-16T20:09:46.518Z,21.23
2023-04-16T20:12:12.976Z,21.20
2023-04-16T20:14:39.461Z,19.42
2023-04-16T20:17:09.808Z,23.20
2023-04-16T20:19:38.378Z,22.10
2023-04-16T20:22:05.050Z,20.00
2023-04-16T20:24:31.603Z,19.20
2023-04-16T20:26:58.073Z,27.75
2023-04-16T20:29:24.504Z,23.88
2023-04-16T20:31:50.993Z,22.88
2023-04-16T20:34:17.831Z,26.40
2023-04-16T20:36:44.382Z,23.92
2023-04-16T20:39:11.630Z,20.30
2023-04-16T20:41:43.606Z,22.55
2023-04-16T20:44:10.333Z,24.08
2023-04-16T20:46:39.692Z,22.35
2023-04-16T20:49:07.472Z,30.33
2023-04-16T20:51:33.941Z,28.48
2023-04-16T20:54:01.067Z,22.95
2023-04-16T20:56:27.516Z,23.92
2023-04-16T20:58:53.967Z,30.77
2023-04-16T21:01:20.739Z,25.70
2023-04-16T21:03:47.424Z,28.27
2023-04-16T21:06:17.909Z,23.73
2023-04-16T21:08:44.445Z,26.92
2023-04-16T21:11:10.892Z,21.08
2023-04-16T21:13:37.309Z,28.75
2023-04-16T21:16:04.826Z,25.27
2023-04-16T21:18:31.356Z,26.83
2023-04-16T21:20:58.864Z,25.40
2023-04-16T21:23:25.707Z,23.27
2023-04-16T21:25:52.163Z,23.17
2023-04-16T21:28:18.698Z,23.88
2023-04-16T21:30:45.135Z,24.55
2023-04-16T21:33:12.964Z,18.88
2023-04-16T21:35:39.448Z,24.80
2023-04-16T21:38:05.890Z,22.42
2023-04-16T21:40:32.359Z,20.20
2023-04-16T21:42:58.840Z,26.00
2023-04-16T21:45:25.461Z,21.23
2023-04-16T21:47:52.010Z,26.83
2023-04-16T21:50:18.541Z,23.05
2023-04-16T21:52:46.170Z,21.23
2023-04-16T21:55:14.232Z,21.30
2023-04-16T21:57:41.732Z,22.48
2023-04-16T22:00:13.832Z,22.70
2023-04-16T22:02:42.172Z,21.88
2023-04-16T22:05:09.204Z,22.92
2023-04-16T22:07:36.718Z,22.13
2023-04-16T22:10:04.433Z,23.85
2023-04-16T22:12:31.277Z,27.13
2023-04-16T22:15:02.784Z,24.33
2023-04-16T22:17:30.085Z,24.63
2023-04-16T22:19:57.266Z,26.95
2023-04-16T22:22:23.755Z,23.65
2023-04-16T22:24:50.322Z,26.48
2023-04-16T22:27:16.909Z,24.55
2023-04-16T22:29:43.444Z,24.67
2023-04-16T22:32:09.922Z,27.20
2023-04-16T22:34:38.652Z,26.52
2023-04-16T22:37:05.906Z,24.70
2023-04-16T22:39:32.345Z,27.23
2023-04-16T22:41:58.880Z,24.23
2023-04-16T22:44:25.508Z,26.23
2023-04-16T22:46:52.096Z,26.65
2023-04-16T22:49:18.548Z,30.08
2023-04-16T22:51:45.103Z,25.98
2023-04-16T22:54:13.633Z,23.73
2023-04-16T22:56:40.740Z,31.48
2023-04-16T22:59:07.394Z,32.60
2023-04-16T23:01:34.949Z,25.83
2023-04-16T23:04:01.499Z,31.92
2023-04-16T23:06:27.958Z,28.95
2023-04-16T23:08:54.397Z,32.17
2023-04-16T23:11:20.841Z,31.35
2023-04-16T23:13:47.277Z,26.33
2023-04-16T23:16:13.836Z,29.42
2023-04-16T23:18:40.351Z,25.77
2023-04-16T23:21:06.838Z,26.38
2023-04-16T23:23:33.416Z,25.52
2023-04-16T23:26:02.601Z,28.88
2023-04-16T23:28:29.117Z,28.45
2023-04-16T23:30:55.592Z,30.15
2023-04-16T23:33:22.089Z,31.83
2023-04-16T23:35:48.500Z,29.98
2023-04-16T23:38:17.104Z,30.67
2023-04-16T23:40:43.561Z,37.78
2023-04-16T23:43:10.592Z,29.75
2023-04-16T23:45:37.567Z,30.27
2023-04-16T23:48:04.099Z,31.85
2023-04-16T23:50:30.700Z,27.15
2023-04-16T23:52:57.142Z,25.13
2023-04-16T23:55:23.814Z,29.23
2023-04-16T23:57:50.306Z,29.15
